Time;durP1;ratioP1;P1;durP2;ratioP2;P2;SDS_P1;SDS_P2;PMS_P1;PMS_P2;Temp;Humidity;BMP_temperature;BMP_pressure;BME280_temperature;BME280_humidity;BME280_pressure;Samples;Min_cycle;Max_cycle;Signal;HPM_P1;HPM_P2
2022/01/18 00:01:52;;;;;;;8.23;2.75;;;10.30;99.90;;;;;;5023032;28;20174;-78
2022/01/18 00:04:19;;;;;;;9.82;3.00;;;10.30;99.90;;;;;;5003387;28;20777;-77
2022/01/18 00:06:49;;;;;;;10.73;2.80;;;10.30;99.90;;;;;;5016361;28;20365;-77
2022/01/18 00:09:19;;;;;;;10.60;3.47;;;10.30;99.90;;;;;;5004163;28;20202;-78
2022/01/18 00:12:53;;;;;;;10.88;2.72;;;10.30;99.90;;;;;;5002607;28;20198;-78
2022/01/18 00:14:43;;;;;;;10.50;3.45;;;10.40;99.90;;;;;;5014121;28;20819;-77
2022/01/18 00:17:29;;;;;;;9.40;3.10;;;10.40;99.90;;;;;;5022314;28;20257;-77
2022/01/18 00:19:56;;;;;;;8.77;2.83;;;10.40;99.90;;;;;;5004177;28;20556;-77
2022/01/18 00:22:25;;;;;;;16.65;4.20;;;10.40;99.90;;;;;;5005963;28;20212;-77
2022/01/18 00:24:51;;;;;;;14.00;2.63;;;10.40;99.90;;;;;;4987657;28;20213;-77
2022/01/18 00:27:18;;;;;;;10.00;2.95;;;10.40;99.90;;;;;;4985130;28;20194;-77
2022/01/18 00:30:01;;;;;;;8.63;3.15;;;10.40;99.90;;;;;;4996944;28;20225;-77
2022/01/18 00:32:38;;;;;;;10.70;3.20;;;10.40;99.90;;;;;;5001084;28;20201;-77
2022/01/18 00:35:05;;;;;;;15.38;3.70;;;10.40;99.90;;;;;;5020690;28;20209;-78
2022/01/18 00:37:36;;;;;;;8.13;2.30;;;10.30;99.90;;;;;;5016391;28;20198;-77
2022/01/18 00:40:04;;;;;;;11.52;2.65;;;10.30;99.90;;;;;;5019848;28;20175;-77
2022/01/18 00:42:30;;;;;;;8.32;2.35;;;10.30;99.90;;;;;;5004286;28;20192;-77
2022/01/18 00:44:56;;;;;;;10.32;2.60;;;10.30;99.90;;;;;;5020977;28;20197;-78
2022/01/18 00:47:22;;;;;;;10.53;2.17;;;10.30;99.90;;;;;;5018810;28;20182;-78
2022/01/18 00:49:55;;;;;;;11.70;2.97;;;10.30;99.90;;;;;;5004404;28;20664;-77
2022/01/18 00:52:21;;;;;;;9.45;2.72;;;10.40;99.90;;;;;;5017027;28;20581;-77
2022/01/18 00:54:47;;;;;;;9.80;2.83;;;10.30;99.90;;;;;;5000856;28;20190;-77
2022/01/18 00:57:13;;;;;;;13.33;2.50;;;10.30;99.90;;;;;;5021012;28;20569;-77
2022/01/18 00:59:40;;;;;;;13.55;2.92;;;10.40;99.90;;;;;;5003696;28;20596;-78
2022/01/18 01:02:08;;;;;;;12.52;2.88;;;10.30;99.90;;;;;;5019174;28;20180;-77
2022/01/18 01:04:38;;;;;;;12.75;3.28;;;10.40;99.90;;;;;;4995908;28;20194;-77
2022/01/18 01:07:05;;;;;;;13.05;3.05;;;10.30;99.90;;;;;;4986678;28;20317;-77
2022/01/18 01:09:30;;;;;;;10.65;2.20;;;10.30;99.90;;;;;;5020416;28;20236;-77
2022/01/18 01:11:56;;;;;;;10.03;2.80;;;10.30;99.90;;;;;;4999909;28;20182;-77
2022/01/18 01:14:25;;;;;;;8.27;2.43;;;10.30;99.90;;;;;;4993236;28;20198;-77
2022/01/18 01:16:58;;;;;;;13.85;2.58;;;10.30;99.90;;;;;;5018793;28;20301;-77
2022/01/18 01:19:45;;;;;;;10.25;2.63;;;10.30;99.90;;;;;;5023569;28;20183;-77
2022/01/18 01:36:01;;;;;;;10.15;2.50;;;10.30;99.90;;;;;;5017147;28;20921;-77
2022/01/18 01:44:17;;;;;;;11.27;3.35;;;10.30;99.90;;;;;;5019774;28;20292;-77
2022/01/18 01:46:44;;;;;;;12.25;3.15;;;10.30;99.90;;;;;;4995428;28;20185;-77
2022/01/18 01:49:13;;;;;;;10.10;2.50;;;10.30;99.90;;;;;;5017045;28;20201;-77
2022/01/18 01:51:47;;;;;;;10.65;2.42;;;10.20;99.90;;;;;;4978444;28;20178;-77
2022/01/18 01:54:13;;;;;;;10.77;2.67;;;10.20;99.90;;;;;;5017315;28;20898;-77
2022/01/18 01:56:39;;;;;;;6.57;2.47;;;10.20;99.90;;;;;;4994798;28;20837;-77
2022/01/18 01:59:05;;;;;;;9.40;2.57;;;10.20;99.90;;;;;;4998479;28;20246;-77
2022/01/18 02:01:43;;;;;;;7.55;1.95;;;10.30;99.90;;;;;;5001895;28;20178;-77
2022/01/18 02:04:09;;;;;;;8.93;2.30;;;10.30;99.90;;;;;;5023702;28;20194;-77
2022/01/18 02:06:35;;;;;;;8.80;1.90;;;10.30;99.90;;;;;;4996596;28;20170;-77
2022/01/18 02:09:00;;;;;;;19.00;3.13;;;10.30;99.90;;;;;;5000657;28;20190;-77
2022/01/18 02:11:26;;;;;;;7.57;2.20;;;10.30;99.90;;;;;;4986122;28;20642;-77
2022/01/18 02:13:52;;;;;;;8.57;2.60;;;10.30;99.90;;;;;;5019763;28;20202;-77
2022/01/18 02:21:50;;;;;;;8.40;2.60;;;10.30;99.90;;;;;;5016648;28;20182;-77
2022/01/18 02:24:18;;;;;;;10.48;2.55;;;10.20;99.90;;;;;;4990911;28;20202;-77
2022/01/18 02:26:44;;;;;;;9.90;2.90;;;10.20;99.90;;;;;;5017042;28;20178;-77
2022/01/18 02:29:11;;;;;;;9.03;3.03;;;10.20;99.90;;;;;;5019786;28;20166;-77
2022/01/18 02:31:37;;;;;;;10.45;2.13;;;10.20;99.90;;;;;;5001973;28;20194;-77
2022/01/18 02:34:05;;;;;;;10.90;3.13;;;10.20;99.90;;;;;;5020075;28;20228;-77
2022/01/18 02:36:32;;;;;;;9.60;2.75;;;10.20;99.90;;;;;;5003456;28;20205;-77
2022/01/18 02:38:58;;;;;;;12.30;2.60;;;10.20;99.90;;;;;;5022142;28;20193;-78
2022/01/18 02:41:29;;;;;;;9.43;2.75;;;10.20;99.90;;;;;;4997674;28;20178;-79
2022/01/18 02:44:21;;;;;;;14.18;3.13;;;10.20;99.90;;;;;;5021803;28;20197;-78
2022/01/18 02:46:47;;;;;;;7.95;2.67;;;10.20;99.90;;;;;;5003185;28;20208;-77
2022/01/18 02:49:13;;;;;;;10.10;2.45;;;10.20;99.90;;;;;;5008314;28;20683;-78
2022/01/18 02:51:39;;;;;;;12.30;2.37;;;10.20;99.90;;;;;;5021797;28;20245;-77
2022/01/18 02:54:07;;;;;;;8.57;2.80;;;10.30;99.90;;;;;;5023408;28;21237;-77
2022/01/18 02:56:45;;;;;;;11.73;3.15;;;10.20;99.90;;;;;;5007007;28;20201;-77
2022/01/18 03:04:21;;;;;;;6.90;2.78;;;10.30;99.90;;;;;;5020141;28;21160;-77
2022/01/18 03:06:47;;;;;;;8.50;2.83;;;10.30;99.90;;;;;;4999166;28;20258;-77
2022/01/18 03:09:13;;;;;;;7.40;2.65;;;10.30;99.90;;;;;;5020230;28;20190;-77
2022/01/18 03:11:39;;;;;;;10.75;2.80;;;10.30;99.90;;;;;;5019962;28;20171;-77
2022/01/18 03:14:05;;;;;;;8.60;3.07;;;10.30;99.90;;;;;;5004366;28;20268;-77
2022/01/18 03:16:31;;;;;;;9.18;2.78;;;10.30;99.90;;;;;;4989693;28;21194;-78
2022/01/18 03:18:57;;;;;;;13.00;3.30;;;10.30;99.90;;;;;;5001814;28;20189;-77
2022/01/18 03:21:23;;;;;;;6.47;1.93;;;10.30;99.90;;;;;;5005346;28;20599;-78
2022/01/18 03:23:53;;;;;;;10.83;2.20;;;10.30;99.90;;;;;;5023276;28;20216;-78
2022/01/18 03:26:19;;;;;;;12.55;4.00;;;10.30;99.90;;;;;;5019889;28;20221;-78
2022/01/18 03:28:45;;;;;;;7.10;2.97;;;10.30;99.90;;;;;;5019103;28;20272;-78
2022/01/18 03:31:11;;;;;;;11.00;2.88;;;10.30;99.90;;;;;;5001858;28;20182;-78
2022/01/18 03:33:37;;;;;;;8.33;2.80;;;10.30;99.90;;;;;;5019600;28;20621;-78
2022/01/18 03:36:05;;;;;;;10.90;2.83;;;10.30;99.90;;;;;;5019782;28;21242;-78
2022/01/18 03:38:31;;;;;;;12.35;2.42;;;10.30;99.90;;;;;;4996262;28;20178;-78
2022/01/18 03:41:01;;;;;;;9.98;2.95;;;10.30;99.90;;;;;;5019051;28;20223;-78
2022/01/18 03:43:32;;;;;;;11.63;3.03;;;10.30;99.90;;;;;;4979696;28;20540;-78
2022/01/18 03:46:03;;;;;;;7.25;3.28;;;10.30;99.90;;;;;;5000731;28;20277;-78
2022/01/18 03:48:33;;;;;;;9.93;3.55;;;10.20;99.90;;;;;;5019186;28;20194;-78
2022/01/18 03:51:01;;;;;;;9.02;2.88;;;10.20;99.90;;;;;;5020899;28;20237;-78
2022/01/18 03:53:27;;;;;;;10.82;3.58;;;10.20;99.90;;;;;;4992015;28;20182;-78
2022/01/18 03:55:54;;;;;;;10.45;4.53;;;10.20;99.90;;;;;;5028555;28;20220;-78
2022/01/18 03:58:20;;;;;;;11.20;4.80;;;10.20;99.90;;;;;;4995167;28;20760;-78
2022/01/18 04:00:46;;;;;;;16.73;3.72;;;10.20;99.90;;;;;;5019372;28;20541;-78
2022/01/18 04:03:13;;;;;;;13.75;4.05;;;10.20;99.90;;;;;;5019948;28;20167;-78
2022/01/18 04:05:38;;;;;;;13.35;3.55;;;10.20;99.90;;;;;;5018928;28;20198;-78
2022/01/18 04:08:05;;;;;;;7.13;3.23;;;10.20;99.90;;;;;;4971119;28;20190;-78
2022/01/18 04:10:31;;;;;;;12.15;3.92;;;10.10;99.90;;;;;;5021802;28;20675;-78
2022/01/18 04:12:59;;;;;;;11.27;3.53;;;10.10;99.90;;;;;;5021521;28;20169;-79
2022/01/18 04:15:25;;;;;;;8.07;4.50;;;10.10;99.90;;;;;;4978356;28;20617;-77
2022/01/18 04:28:27;;;;;;;11.90;4.57;;;10.10;99.90;;;;;;5022211;28;20182;-77
2022/01/18 04:30:53;;;;;;;11.90;4.00;;;10.10;99.90;;;;;;5021799;28;20178;-77
2022/01/18 04:33:19;;;;;;;14.10;4.13;;;10.00;99.90;;;;;;5007291;28;20664;-78
2022/01/18 04:35:46;;;;;;;15.52;4.50;;;10.00;99.90;;;;;;5004298;28;20177;-78
2022/01/18 04:38:12;;;;;;;11.50;4.40;;;10.00;99.90;;;;;;5019035;28;20174;-77
2022/01/18 04:40:41;;;;;;;11.48;4.80;;;10.00;99.90;;;;;;4992687;28;20635;-77
2022/01/18 04:43:38;;;;;;;18.33;5.93;;;10.00;99.90;;;;;;5010482;28;20805;-77
2022/01/18 04:48:48;;;;;;;12.35;3.70;;;10.00;99.90;;;;;;5018285;28;20268;-77
2022/01/18 04:51:14;;;;;;;16.87;5.00;;;10.00;99.90;;;;;;5000133;28;20700;-77
2022/01/18 04:53:54;;;;;;;9.77;3.90;;;10.10;99.90;;;;;;5004958;28;20332;-77
2022/01/18 04:59:01;;;;;;;17.20;4.70;;;10.00;99.90;;;;;;5019674;28;20270;-78
2022/01/18 05:01:27;;;;;;;11.15;4.60;;;10.10;99.90;;;;;;4987166;28;20196;-78
2022/01/18 05:03:52;;;;;;;15.07;4.63;;;10.10;99.90;;;;;;5021124;28;20185;-78
2022/01/18 05:06:19;;;;;;;10.20;4.50;;;10.10;99.90;;;;;;5018081;28;20185;-78
2022/01/18 05:08:46;;;;;;;13.82;5.30;;;10.10;99.90;;;;;;5023379;28;20193;-78
2022/01/18 05:11:15;;;;;;;14.88;4.32;;;10.00;99.90;;;;;;5000358;28;20253;-78
2022/01/18 05:14:06;;;;;;;9.15;4.60;;;10.10;99.90;;;;;;5005064;28;20573;-78
2022/01/18 05:24:12;;;;;;;10.77;3.85;;;10.00;99.90;;;;;;5018596;28;20217;-78
2022/01/18 05:26:37;;;;;;;8.90;3.63;;;10.10;99.90;;;;;;5018669;28;20182;-78
2022/01/18 05:29:03;;;;;;;14.40;4.63;;;10.00;99.90;;;;;;4998891;28;20585;-78
2022/01/18 05:31:29;;;;;;;14.10;5.10;;;10.00;99.90;;;;;;5000045;28;20179;-78
2022/01/18 05:33:55;;;;;;;8.73;4.97;;;10.00;99.90;;;;;;4992584;28;20225;-78
2022/01/18 05:36:20;;;;;;;11.40;4.57;;;10.00;99.90;;;;;;4998375;28;20656;-78
2022/01/18 05:38:47;;;;;;;15.80;5.00;;;10.00;99.90;;;;;;5017771;28;20179;-77
2022/01/18 05:41:13;;;;;;;9.10;4.78;;;9.90;99.90;;;;;;5000030;28;20198;-78
2022/01/18 05:43:38;;;;;;;19.60;5.65;;;9.90;99.90;;;;;;5016638;28;20673;-77
2022/01/18 05:46:04;;;;;;;13.93;4.50;;;9.90;99.90;;;;;;5007595;28;20184;-77
2022/01/18 05:48:30;;;;;;;21.60;4.97;;;9.90;99.90;;;;;;5006079;28;20184;-79
2022/01/18 05:50:59;;;;;;;14.50;5.80;;;9.90;99.90;;;;;;4981089;28;20178;-77
2022/01/18 05:53:36;;;;;;;11.77;4.88;;;9.90;99.90;;;;;;5017203;28;20581;-78
2022/01/18 05:56:08;;;;;;;15.90;5.50;;;9.80;99.90;;;;;;5019098;28;20198;-78
2022/01/18 05:58:34;;;;;;;11.13;5.55;;;9.80;99.90;;;;;;5002858;28;20271;-78
2022/01/18 06:00:59;;;;;;;13.90;3.90;;;9.80;99.90;;;;;;5001490;28;20276;-78
2022/01/18 06:03:36;;;;;;;8.87;4.87;;;9.80;99.90;;;;;;4993126;28;20170;-78
2022/01/18 06:08:53;;;;;;;16.35;5.05;;;9.80;99.90;;;;;;4989150;28;20201;-78
2022/01/18 06:11:19;;;;;;;13.50;5.47;;;9.80;99.90;;;;;;5024249;28;20240;-78
2022/01/18 06:13:45;;;;;;;13.27;4.43;;;9.80;99.90;;;;;;5024364;28;20292;-78
2022/01/18 06:16:10;;;;;;;13.67;3.90;;;9.80;99.90;;;;;;5003661;28;20202;-78
2022/01/18 06:18:36;;;;;;;15.50;6.57;;;9.80;99.90;;;;;;4998343;28;20573;-78
2022/01/18 06:21:02;;;;;;;8.00;4.40;;;9.80;99.90;;;;;;5020749;28;20185;-78
2022/01/18 06:23:28;;;;;;;14.17;5.33;;;9.70;99.90;;;;;;5026252;28;20584;-79
2022/01/18 06:25:54;;;;;;;10.70;3.80;;;9.70;99.90;;;;;;4968464;28;20217;-79
2022/01/18 06:28:20;;;;;;;9.90;4.90;;;9.70;99.90;;;;;;5010591;28;20227;-78
2022/01/18 06:30:45;;;;;;;12.90;4.50;;;9.70;99.90;;;;;;5020684;28;20179;-78
2022/01/18 06:33:11;;;;;;;13.13;5.20;;;9.70;99.90;;;;;;4998770;28;20571;-78
2022/01/18 06:35:37;;;;;;;15.93;6.10;;;9.70;99.90;;;;;;5007609;28;20603;-79
2022/01/18 06:38:03;;;;;;;11.57;4.97;;;9.80;99.90;;;;;;5033635;28;20170;-78
2022/01/18 06:40:29;;;;;;;12.53;4.90;;;9.80;99.90;;;;;;5018230;28;20569;-80
2022/01/18 06:42:54;;;;;;;11.52;4.90;;;9.80;99.90;;;;;;4999156;28;20208;-77
2022/01/18 06:45:20;;;;;;;18.07;4.93;;;9.80;99.90;;;;;;5026391;28;20263;-77
2022/01/18 06:47:46;;;;;;;12.38;5.10;;;9.80;99.90;;;;;;5016071;28;20220;-78
2022/01/18 06:50:12;;;;;;;13.83;3.97;;;9.80;99.90;;;;;;5017515;28;20177;-78
2022/01/18 06:52:39;;;;;;;11.03;4.83;;;9.80;99.90;;;;;;5033793;28;20261;-78
2022/01/18 06:55:07;;;;;;;18.45;4.80;;;9.80;99.90;;;;;;4999636;28;20753;-78
2022/01/18 06:57:32;;;;;;;13.18;5.88;;;9.80;99.90;;;;;;5024355;28;20193;-77
2022/01/18 06:59:58;;;;;;;12.70;4.53;;;9.80;99.90;;;;;;5028061;28;20215;-78
2022/01/18 07:02:24;;;;;;;12.27;5.00;;;9.80;99.90;;;;;;5006885;28;20177;-78
2022/01/18 07:04:49;;;;;;;15.13;5.00;;;9.80;99.90;;;;;;4989492;28;20201;-77
2022/01/18 07:07:17;;;;;;;13.90;4.77;;;9.80;99.90;;;;;;5020144;28;20239;-77
2022/01/18 07:09:44;;;;;;;10.60;5.32;;;9.80;99.90;;;;;;5014059;28;20182;-77
2022/01/18 07:12:11;;;;;;;13.57;5.45;;;9.80;99.90;;;;;;5019871;28;20280;-77
2022/01/18 07:14:41;;;;;;;11.07;6.20;;;9.80;99.90;;;;;;4997319;28;20322;-77
2022/01/18 07:17:07;;;;;;;14.68;5.45;;;9.70;99.90;;;;;;5000887;28;20241;-77
2022/01/18 07:19:34;;;;;;;15.95;5.82;;;9.80;99.90;;;;;;5019909;28;20201;-77
2022/01/18 07:22:00;;;;;;;17.27;5.22;;;9.70;99.90;;;;;;5003684;28;20186;-77
2022/01/18 07:24:38;;;;;;;17.35;5.50;;;9.70;99.90;;;;;;5023045;28;20209;-77
2022/01/18 07:27:06;;;;;;;14.35;5.55;;;9.70;99.90;;;;;;5003450;28;20185;-77
2022/01/18 07:29:32;;;;;;;14.63;5.15;;;9.70;99.90;;;;;;5002189;28;20662;-77
2022/01/18 07:31:58;;;;;;;18.77;6.07;;;9.70;99.90;;;;;;5003024;28;20221;-77
2022/01/18 07:34:24;;;;;;;12.67;4.40;;;9.70;99.90;;;;;;5023117;28;20610;-77
2022/01/18 07:36:49;;;;;;;13.20;5.50;;;9.70;99.90;;;;;;5009000;28;20612;-78
2022/01/18 07:39:15;;;;;;;17.60;5.37;;;9.70;99.90;;;;;;4994705;28;20629;-77
2022/01/18 07:41:41;;;;;;;16.70;5.07;;;9.80;99.90;;;;;;5017926;28;20312;-77
2022/01/18 07:44:07;;;;;;;13.00;5.30;;;9.80;99.90;;;;;;5002663;28;20547;-77
2022/01/18 07:46:33;;;;;;;11.60;6.20;;;9.80;99.90;;;;;;5019529;28;20257;-77
2022/01/18 07:48:59;;;;;;;18.80;7.72;;;9.80;99.90;;;;;;4987322;28;20190;-77
2022/01/18 07:51:25;;;;;;;13.87;6.00;;;9.80;99.90;;;;;;5022309;28;20606;-75
2022/01/18 07:53:51;;;;;;;14.83;6.13;;;9.80;99.90;;;;;;5004426;28;20281;-75
2022/01/18 07:56:16;;;;;;;15.00;5.90;;;9.90;99.90;;;;;;4995275;28;20210;-75
2022/01/18 07:58:42;;;;;;;12.03;6.50;;;9.90;99.90;;;;;;5020655;28;20184;-76
2022/01/18 08:01:08;;;;;;;15.43;4.97;;;9.90;99.90;;;;;;5003450;28;20209;-75
2022/01/18 08:03:33;;;;;;;12.80;5.63;;;9.90;99.90;;;;;;4995869;28;20186;-75
2022/01/18 08:06:00;;;;;;;11.07;5.37;;;9.90;99.90;;;;;;5019297;28;20193;-75
2022/01/18 08:08:26;;;;;;;17.50;6.38;;;10.00;99.90;;;;;;5001407;28;20242;-75
2022/01/18 08:10:52;;;;;;;13.50;5.70;;;10.00;99.90;;;;;;5019338;28;20503;-75
2022/01/18 08:13:22;;;;;;;11.15;5.10;;;10.00;99.90;;;;;;5022823;28;20173;-76
2022/01/18 08:15:57;;;;;;;17.42;6.70;;;10.00;99.90;;;;;;5026119;28;20591;-75
2022/01/18 08:18:23;;;;;;;11.02;5.15;;;10.10;99.90;;;;;;5018948;28;20177;-76
2022/01/18 08:20:48;;;;;;;13.63;5.77;;;10.10;99.90;;;;;;4997402;28;20253;-76
2022/01/18 08:23:14;;;;;;;19.20;6.60;;;10.10;99.90;;;;;;5001008;28;20228;-75
2022/01/18 08:25:40;;;;;;;18.70;5.87;;;10.20;99.90;;;;;;5018242;28;20229;-76
2022/01/18 08:28:06;;;;;;;15.07;5.40;;;10.20;99.90;;;;;;4999842;28;20182;-76
2022/01/18 08:30:32;;;;;;;16.57;6.40;;;10.20;99.90;;;;;;5016943;28;20178;-75
2022/01/18 08:32:58;;;;;;;13.30;5.23;;;10.20;99.90;;;;;;5019524;28;20639;-75
2022/01/18 08:35:24;;;;;;;12.50;5.07;;;10.20;99.90;;;;;;5022124;28;20201;-75
2022/01/18 08:37:50;;;;;;;9.20;4.90;;;10.30;99.90;;;;;;4987819;28;20216;-75
2022/01/18 08:40:16;;;;;;;13.60;5.10;;;10.30;99.90;;;;;;5018153;28;20182;-75
2022/01/18 08:42:43;;;;;;;14.83;5.87;;;10.30;99.90;;;;;;4996733;28;20220;-76
2022/01/18 08:45:09;;;;;;;19.80;5.50;;;10.30;99.90;;;;;;5018446;28;20671;-77
2022/01/18 08:47:35;;;;;;;16.23;4.77;;;10.30;99.90;;;;;;5018647;28;20261;-76
2022/01/18 08:50:02;;;;;;;11.63;4.65;;;10.30;99.90;;;;;;4999124;28;20656;-77
2022/01/18 08:52:28;;;;;;;10.20;4.60;;;10.40;99.90;;;;;;5008446;28;20186;-78
2022/01/18 08:54:54;;;;;;;15.50;5.43;;;10.40;99.90;;;;;;4996805;28;20536;-76
2022/01/18 08:57:20;;;;;;;15.77;5.73;;;10.40;99.90;;;;;;5006233;28;20209;-76
2022/01/18 08:59:47;;;;;;;14.17;5.50;;;10.40;99.90;;;;;;5024882;28;20174;-76
2022/01/18 09:02:13;;;;;;;13.18;5.40;;;10.50;99.90;;;;;;5001698;28;20229;-77
2022/01/18 09:04:39;;;;;;;13.43;5.68;;;10.50;99.90;;;;;;5018620;28;20204;-77
2022/01/18 09:07:10;;;;;;;14.03;4.83;;;10.50;99.90;;;;;;5020452;28;20768;-77
2022/01/18 09:09:39;;;;;;;12.63;5.47;;;10.60;99.90;;;;;;5021331;28;20588;-77
2022/01/18 09:12:07;;;;;;;19.55;6.65;;;10.60;99.90;;;;;;5001535;28;20185;-77
2022/01/18 09:14:32;;;;;;;16.23;5.35;;;10.70;99.90;;;;;;5018071;28;20202;-77
2022/01/18 09:16:59;;;;;;;14.23;5.78;;;10.70;99.90;;;;;;5017455;28;20292;-75
2022/01/18 09:19:25;;;;;;;12.97;5.80;;;10.80;99.90;;;;;;4999986;28;20265;-76
2022/01/18 09:21:51;;;;;;;10.27;5.03;;;10.80;99.90;;;;;;5017240;28;20987;-76
2022/01/18 09:24:16;;;;;;;9.10;5.30;;;10.90;99.90;;;;;;5020738;28;20580;-75
2022/01/18 09:26:43;;;;;;;16.23;5.57;;;10.90;99.90;;;;;;5003471;28;20223;-76
2022/01/18 09:29:10;;;;;;;16.05;5.85;;;11.00;99.90;;;;;;5026400;28;20642;-75
2022/01/18 09:31:39;;;;;;;16.42;4.70;;;11.00;99.90;;;;;;5020487;28;20186;-76
2022/01/18 09:34:05;;;;;;;9.15;3.78;;;11.00;99.90;;;;;;5018992;28;20262;-76
2022/01/18 09:36:31;;;;;;;15.23;4.60;;;11.10;99.90;;;;;;4999895;28;20228;-75
2022/01/18 09:38:58;;;;;;;15.80;5.30;;;11.10;99.90;;;;;;5018761;28;20178;-76
2022/01/18 09:41:30;;;;;;;13.52;5.10;;;11.20;99.90;;;;;;5020512;28;20173;-76
2022/01/18 09:43:57;;;;;;;11.52;4.60;;;11.20;99.90;;;;;;5002199;28;20198;-76
2022/01/18 09:46:26;;;;;;;14.80;5.93;;;11.20;99.90;;;;;;5002893;28;20187;-75
2022/01/18 09:48:53;;;;;;;10.27;4.43;;;11.30;99.90;;;;;;5020166;28;20494;-75
2022/01/18 09:51:19;;;;;;;14.85;4.85;;;11.30;99.90;;;;;;4975846;28;20194;-76
2022/01/18 09:53:45;;;;;;;14.50;5.38;;;11.40;99.90;;;;;;5016316;28;20212;-76
2022/01/18 09:56:11;;;;;;;10.10;4.30;;;11.40;99.90;;;;;;4999796;28;20572;-76
2022/01/18 09:58:37;;;;;;;13.82;5.47;;;11.50;99.90;;;;;;5017086;28;20190;-76
2022/01/18 10:01:04;;;;;;;11.50;4.40;;;11.50;99.90;;;;;;4997726;28;20248;-76
2022/01/18 10:03:39;;;;;;;14.95;4.00;;;11.50;99.90;;;;;;4987717;28;20906;-76
2022/01/18 10:06:06;;;;;;;9.80;4.40;;;11.60;99.90;;;;;;5024427;28;20283;-76
2022/01/18 10:08:33;;;;;;;13.13;4.50;;;11.70;99.90;;;;;;5020532;28;20659;-76
2022/01/18 10:11:05;;;;;;;12.48;4.50;;;11.80;99.90;;;;;;5018213;28;20177;-76
2022/01/18 10:13:33;;;;;;;11.95;5.57;;;11.90;99.90;;;;;;5014812;28;20178;-76
2022/01/18 10:16:09;;;;;;;13.00;4.63;;;12.00;99.90;;;;;;5002337;28;20166;-76
2022/01/18 10:18:43;;;;;;;10.48;4.65;;;12.10;99.90;;;;;;5017506;28;20177;-76
2022/01/18 10:21:10;;;;;;;14.13;6.07;;;12.20;99.90;;;;;;4994663;28;20181;-76
2022/01/18 10:23:37;;;;;;;13.63;6.10;;;12.30;99.90;;;;;;5022470;28;20585;-77
2022/01/18 10:26:21;;;;;;;15.00;6.07;;;12.40;99.90;;;;;;5026537;28;20230;-76
2022/01/18 10:28:57;;;;;;;15.20;7.23;;;12.40;99.90;;;;;;4996642;28;20585;-76
2022/01/18 10:31:25;;;;;;;14.63;6.83;;;12.50;99.90;;;;;;5009543;28;21144;-76
2022/01/18 10:34:15;;;;;;;11.80;5.97;;;12.50;99.90;;;;;;4999673;28;20609;-76
2022/01/18 10:37:12;;;;;;;16.77;7.37;;;12.60;99.90;;;;;;5009174;28;20728;-76
2022/01/18 10:39:41;;;;;;;14.52;6.38;;;12.60;99.90;;;;;;4998503;28;20569;-77
2022/01/18 10:42:18;;;;;;;16.23;7.07;;;12.60;99.90;;;;;;5027464;28;20170;-77
2022/01/18 10:44:57;;;;;;;14.83;7.37;;;12.60;99.90;;;;;;5016694;28;20209;-76
2022/01/18 10:47:24;;;;;;;16.38;7.30;;;12.60;99.90;;;;;;4999794;28;20581;-76
2022/01/18 10:49:50;;;;;;;11.52;6.47;;;12.60;99.90;;;;;;4999402;28;20530;-76
2022/01/18 10:52:18;;;;;;;14.83;8.37;;;12.60;99.90;;;;;;5011568;28;20193;-76
2022/01/18 10:54:49;;;;;;;10.23;7.47;;;12.60;99.90;;;;;;5003639;28;20605;-76
2022/01/18 10:57:27;;;;;;;11.38;7.65;;;12.60;99.90;;;;;;5019079;28;20704;-76
2022/01/18 11:00:21;;;;;;;19.03;8.20;;;12.60;99.90;;;;;;4999724;28;20190;-75
2022/01/18 11:02:52;;;;;;;13.02;8.70;;;12.60;99.90;;;;;;4998252;28;21191;-76
2022/01/18 11:05:26;;;;;;;15.93;8.30;;;12.60;99.90;;;;;;5027910;28;20190;-76
2022/01/18 11:07:53;;;;;;;11.60;7.87;;;12.70;99.90;;;;;;4999379;28;21115;-76
2022/01/18 11:10:22;;;;;;;16.03;8.77;;;12.70;99.90;;;;;;5002849;28;21032;-77
2022/01/18 11:13:03;;;;;;;13.20;8.17;;;12.80;99.90;;;;;;5003094;28;20580;-75
2022/01/18 11:15:32;;;;;;;15.68;9.93;;;12.80;99.90;;;;;;5023496;28;20612;-75
2022/01/18 11:18:02;;;;;;;17.80;9.77;;;12.80;99.90;;;;;;5022116;28;20205;-76
2022/01/18 11:20:31;;;;;;;16.13;11.70;;;12.80;99.90;;;;;;5014803;28;20577;-74
2022/01/18 11:22:57;;;;;;;13.90;10.13;;;12.90;99.90;;;;;;5029211;28;20606;-76
2022/01/18 11:25:23;;;;;;;16.63;10.98;;;12.90;99.90;;;;;;4992747;28;20631;-77
2022/01/18 11:27:51;;;;;;;19.03;11.47;;;12.90;99.90;;;;;;4989714;28;20397;-77
2022/01/18 11:30:20;;;;;;;20.57;11.93;;;13.00;99.90;;;;;;5005979;28;20563;-77
2022/01/18 11:32:46;;;;;;;22.57;11.33;;;13.00;99.90;;;;;;5010237;28;20597;-74
2022/01/18 11:35:25;;;;;;;20.53;11.00;;;13.00;99.90;;;;;;5029830;28;20611;-74
2022/01/18 11:37:54;;;;;;;21.10;11.10;;;13.00;99.90;;;;;;5022443;28;20628;-75
2022/01/18 11:40:20;;;;;;;21.87;12.20;;;13.00;99.90;;;;;;5022031;28;20588;-74
2022/01/18 11:42:53;;;;;;;18.38;12.82;;;13.00;99.90;;;;;;5011065;28;20566;-75
2022/01/18 11:45:24;;;;;;;19.00;11.90;;;13.00;99.90;;;;;;5018984;28;20289;-75
2022/01/18 11:48:19;;;;;;;23.07;11.80;;;13.00;99.90;;;;;;5029919;28;20578;-75
2022/01/18 11:51:00;;;;;;;20.40;12.87;;;13.00;99.90;;;;;;5022013;28;20634;-75
2022/01/18 11:53:54;;;;;;;19.25;14.38;;;13.10;99.90;;;;;;5018709;28;20668;-74
2022/01/18 11:56:35;;;;;;;19.77;14.10;;;13.10;99.90;;;;;;5019341;28;20292;-75
2022/01/18 11:59:27;;;;;;;17.00;13.13;;;13.20;99.90;;;;;;5020733;28;20182;-75
2022/01/18 12:01:54;;;;;;;19.67;12.90;;;13.20;99.90;;;;;;5022411;28;20572;-74
2022/01/18 12:04:45;;;;;;;15.43;12.10;;;13.20;99.90;;;;;;5019856;28;20613;-74
2022/01/18 12:07:47;;;;;;;20.20;12.50;;;13.30;99.90;;;;;;5049986;28;20563;-74
2022/01/18 12:10:32;;;;;;;16.70;10.67;;;13.30;99.90;;;;;;5035488;28;21115;-75
2022/01/18 12:13:10;;;;;;;23.10;12.17;;;13.40;99.90;;;;;;5036222;28;20662;-74
2022/01/18 12:15:38;;;;;;;23.10;13.33;;;13.40;99.90;;;;;;5035605;28;20614;-74
2022/01/18 12:18:15;;;;;;;15.97;11.43;;;13.50;99.90;;;;;;5033532;28;20622;-74
2022/01/18 12:20:43;;;;;;;18.83;12.10;;;13.50;99.90;;;;;;5051144;28;20574;-74
2022/01/18 12:23:12;;;;;;;18.87;13.20;;;13.50;99.90;;;;;;5051093;28;20559;-75
2022/01/18 12:26:04;;;;;;;17.10;12.13;;;13.50;99.90;;;;;;5050516;28;20606;-75
2022/01/18 12:34:25;;;;;;;27.00;12.20;;;13.70;99.90;;;;;;5052667;28;21124;-74
2022/01/18 12:36:55;;;;;;;15.87;11.50;;;13.70;99.90;;;;;;5032058;28;20631;-75
2022/01/18 12:39:22;;;;;;;12.03;9.40;;;13.70;99.90;;;;;;5050019;28;20571;-75
2022/01/18 12:41:53;;;;;;;24.73;13.00;;;13.80;99.90;;;;;;5049775;28;20563;-75
2022/01/18 12:44:20;;;;;;;14.33;10.43;;;13.70;99.90;;;;;;5032144;28;20959;-75
2022/01/18 12:46:58;;;;;;;16.00;10.60;;;13.70;99.90;;;;;;5049969;28;20622;-75
2022/01/18 12:49:24;;;;;;;21.63;11.93;;;13.70;99.90;;;;;;5032226;28;20674;-74
2022/01/18 12:51:55;;;;;;;15.80;10.90;;;13.70;99.90;;;;;;5049704;28;20625;-75
2022/01/18 12:54:32;;;;;;;14.87;10.13;;;13.70;99.90;;;;;;5049838;28;20591;-75
2022/01/18 12:57:15;;;;;;;15.00;8.63;;;13.70;99.90;;;;;;5050811;28;20623;-75
2022/01/18 12:59:59;;;;;;;11.63;8.80;;;13.60;99.90;;;;;;5051270;28;20602;-75
2022/01/18 13:02:26;;;;;;;16.80;8.87;;;13.60;99.90;;;;;;5050852;28;21162;-75
2022/01/18 13:04:58;;;;;;;15.10;11.10;;;13.60;99.90;;;;;;5049605;28;20606;-75
2022/01/18 13:07:25;;;;;;;14.33;10.47;;;13.60;99.90;;;;;;5050089;28;20562;-75
2022/01/18 13:10:07;;;;;;;14.50;11.57;;;13.60;99.90;;;;;;5049807;28;20578;-75
2022/01/18 13:12:39;;;;;;;13.93;11.70;;;13.50;99.90;;;;;;5050840;28;21039;-75
2022/01/18 13:15:07;;;;;;;14.30;11.30;;;13.50;99.90;;;;;;5031498;28;20597;-75
2022/01/18 13:23:26;;;;;;;17.53;12.33;;;13.30;99.90;;;;;;5049366;28;21416;-76
2022/01/18 13:25:58;;;;;;;17.00;11.77;;;13.30;99.90;;;;;;5049099;28;20602;-75
2022/01/18 13:28:34;;;;;;;22.90;11.67;;;13.20;99.90;;;;;;5049042;28;20578;-75
2022/01/18 13:31:19;;;;;;;20.17;11.20;;;13.20;99.90;;;;;;5048874;28;20922;-75
2022/01/18 13:33:51;;;;;;;16.57;10.90;;;13.10;99.90;;;;;;5049018;28;20933;-75
2022/01/18 13:36:17;;;;;;;16.00;11.30;;;13.10;99.90;;;;;;5043289;28;20717;-76
2022/01/18 13:38:43;;;;;;;18.90;11.00;;;13.10;99.90;;;;;;5028720;28;20613;-76
2022/01/18 13:41:09;;;;;;;14.73;11.40;;;13.00;99.90;;;;;;5004692;28;21149;-75
2022/01/18 13:43:35;;;;;;;14.87;10.30;;;13.00;99.90;;;;;;4991332;28;20176;-76
2022/01/18 13:46:01;;;;;;;18.00;11.10;;;13.10;99.90;;;;;;5022162;28;20292;-74
2022/01/18 13:48:33;;;;;;;17.30;10.43;;;13.10;99.90;;;;;;5029552;28;20173;-75
2022/01/18 13:51:09;;;;;;;18.10;9.67;;;13.00;99.90;;;;;;5028599;28;21047;-75
2022/01/18 13:53:35;;;;;;;13.77;9.32;;;13.00;99.90;;;;;;5010752;28;20929;-76
2022/01/18 13:56:18;;;;;;;15.50;9.67;;;13.00;99.90;;;;;;5010866;28;20173;-75
2022/01/18 13:58:45;;;;;;;17.43;10.53;;;13.00;99.90;;;;;;5028730;28;21124;-74